createdAt,value
2023-04-28T00:01:41.865Z,100005.72
2023-04-28T00:04:09.220Z,100009.28
2023-04-28T00:06:36.198Z,100012.06
2023-04-28T00:09:03.731Z,100018.84
2023-04-28T00:11:30.405Z,100022.41
2023-04-28T00:13:57.079Z,100010.91
2023-04-28T00:16:24.198Z,100015.34
2023-04-28T00:18:51.418Z,100021.22
2023-04-28T00:21:18.124Z,100006.94
2023-04-28T00:23:44.830Z,100003.03
2023-04-28T00:26:12.418Z,100013.69
2023-04-28T00:28:39.060Z,100008.47
2023-04-28T00:31:13.388Z,100008.06
2023-04-28T00:33:41.057Z,100001.28
2023-04-28T00:36:08.265Z,99994.50
2023-04-28T00:38:35.282Z,100000.84
2023-04-28T00:41:01.981Z,99994.06
2023-04-28T00:43:29.131Z,100000.75
2023-04-28T00:45:56.082Z,100003.09
2023-04-28T00:48:24.179Z,100011.41
2023-04-28T00:50:51.965Z,99999.94
2023-04-28T00:53:18.691Z,100005.91
2023-04-28T00:55:47.021Z,100008.69
2023-04-28T00:58:13.810Z,100009.16
2023-04-28T01:00:40.635Z,100011.91
2023-04-28T01:03:08.090Z,100017.88
2023-04-28T01:05:35.584Z,100025.81
2023-04-28T01:08:03.115Z,100023.84
2023-04-28T01:10:30.819Z,100014.75
2023-04-28T01:12:57.477Z,100032.97
2023-04-28T01:15:26.157Z,100024.28
2023-04-28T01:17:52.936Z,100023.56
2023-04-28T01:20:19.733Z,100024.38
2023-04-28T01:22:46.480Z,100029.53
2023-04-28T01:25:13.100Z,100033.47
2023-04-28T01:27:39.698Z,100037.84
2023-04-28T01:30:07.049Z,100033.56
2023-04-28T01:32:33.762Z,100036.34
2023-04-28T01:35:00.486Z,100035.97
2023-04-28T01:37:27.123Z,100036.75
2023-04-28T01:39:53.792Z,100045.88
2023-04-28T01:42:20.491Z,100035.25
2023-04-28T01:44:47.087Z,100028.09
2023-04-28T01:47:13.718Z,100032.03
2023-04-28T01:49:40.426Z,100044.25
2023-04-28T01:52:07.170Z,100048.56
2023-04-28T01:54:33.934Z,100057.69
2023-04-28T01:57:00.570Z,100058.09
2023-04-28T01:59:27.369Z,100066.84
2023-04-28T02:01:54.082Z,100061.31
2023-04-28T02:04:20.831Z,100063.72
2023-04-28T02:06:47.455Z,100061.75
2023-04-28T02:09:14.121Z,100067.75
2023-04-28T02:11:40.826Z,100065.41
2023-04-28T02:14:07.478Z,100065.41
2023-04-28T02:16:34.258Z,100065.41
2023-04-28T02:19:01.110Z,100064.59
2023-04-28T02:21:27.984Z,100072.56
2023-04-28T02:23:54.706Z,100078.09
2023-04-28T02:26:21.400Z,100078.44
2023-04-28T02:28:49.210Z,100083.63
2023-04-28T02:31:16.400Z,100078.09
2023-04-28T02:33:43.338Z,100080.88
2023-04-28T02:36:10.886Z,100077.63
2023-04-28T02:38:37.514Z,100085.94
2023-04-28T02:41:06.572Z,100076.47
2023-04-28T02:43:33.914Z,100093.09
2023-04-28T02:46:01.190Z,100083.97
2023-04-28T02:48:27.889Z,100094.25
2023-04-28T02:50:54.693Z,100096.66
2023-04-28T02:53:22.370Z,100089.16
2023-04-28T02:55:49.683Z,100098.63
2023-04-28T02:58:17.951Z,100098.63
2023-04-28T03:00:45.615Z,100100.25
2023-04-28T03:03:13.370Z,100095.84
2023-04-28T03:05:40.235Z,100106.94
2023-04-28T03:08:07.040Z,100103.72
2023-04-28T03:10:33.890Z,100107.28
2023-04-28T03:13:00.578Z,100112.03
2023-04-28T03:15:27.741Z,100095.78
2023-04-28T03:17:54.466Z,100101.69
2023-04-28T03:20:21.355Z,100108.03
2023-04-28T03:22:48.029Z,100111.56
2023-04-28T03:25:16.713Z,100110.41
2023-04-28T03:27:43.292Z,100104.44
2023-04-28T03:30:10.579Z,100112.03
2023-04-28T03:32:37.256Z,100109.69
2023-04-28T03:35:04.463Z,100119.63
2023-04-28T03:37:31.127Z,100125.16
2023-04-28T03:39:57.787Z,100125.16
2023-04-28T03:42:24.422Z,100124.69
2023-04-28T03:44:51.090Z,100124.69
2023-04-28T03:47:17.739Z,100127.47
2023-04-28T03:49:44.329Z,100130.22
2023-04-28T03:52:11.114Z,100135.78
2023-04-28T03:54:38.417Z,100147.66
2023-04-28T03:57:05.050Z,100142.94
2023-04-28T03:59:31.754Z,100140.97
2023-04-28T04:01:58.556Z,100142.22
2023-04-28T04:04:26.762Z,100139.78
2023-04-28T04:06:55.024Z,100142.22
2023-04-28T04:09:23.282Z,100144.16
2023-04-28T04:11:49.953Z,100139.78
2023-04-28T04:14:16.711Z,100139.78
2023-04-28T04:16:43.639Z,100145.31
2023-04-28T04:19:10.309Z,100142.94
2023-04-28T04:21:36.904Z,100142.94
2023-04-28T04:24:03.754Z,100147.66
2023-04-28T04:26:30.608Z,100145.69
2023-04-28T04:28:57.340Z,100139.00
2023-04-28T04:31:23.943Z,100150.09
2023-04-28T04:33:50.628Z,100147.31
2023-04-28T04:36:17.383Z,100156.41
2023-04-28T04:38:43.972Z,100148.09
2023-04-28T04:41:10.694Z,100152.84
2023-04-28T04:43:37.411Z,100157.19
2023-04-28T04:46:04.325Z,100161.16
2023-04-28T04:48:31.007Z,100157.19
2023-04-28T04:50:57.657Z,100161.16
2023-04-28T04:53:24.337Z,100158.38
2023-04-28T04:55:51.045Z,100163.13
2023-04-28T04:58:17.969Z,100170.63
2023-04-28T05:00:44.655Z,100173.38
2023-04-28T05:03:11.950Z,100172.22
2023-04-28T05:05:38.792Z,100167.47
2023-04-28T05:08:06.010Z,100176.25
2023-04-28T05:10:32.980Z,100177.75
2023-04-28T05:12:59.586Z,100179.25
2023-04-28T05:15:26.330Z,100180.06
2023-04-28T05:17:53.131Z,100176.97
2023-04-28T05:20:19.845Z,100181.31
2023-04-28T05:22:46.536Z,100186.13
2023-04-28T05:25:13.272Z,100195.25
2023-04-28T05:27:41.064Z,100199.25
2023-04-28T05:30:09.331Z,100198.47
2023-04-28T05:32:36.757Z,100210.34
2023-04-28T05:35:03.737Z,100206.41
2023-04-28T05:37:30.420Z,100212.75
2023-04-28T05:39:57.079Z,100214.34
2023-04-28T05:42:23.739Z,100220.69
2023-04-28T05:44:50.478Z,100221.50
2023-04-28T05:47:17.182Z,100221.50
2023-04-28T05:49:43.785Z,100227.06
2023-04-28T05:52:10.430Z,100227.06
2023-04-28T05:54:37.131Z,100232.59
2023-04-28T05:57:04.038Z,100240.53
2023-04-28T05:59:31.628Z,100235.09
2023-04-28T06:01:58.411Z,100235.88
2023-04-28T06:04:26.505Z,100244.25
2023-04-28T06:06:53.532Z,100234.91
2023-04-28T06:09:20.376Z,100239.34
2023-04-28T06:11:47.207Z,100251.75
2023-04-28T06:14:13.919Z,100251.47
2023-04-28T06:16:40.749Z,100254.78
2023-04-28T06:19:07.664Z,100256.91
2023-04-28T06:21:34.393Z,100255.78
2023-04-28T06:24:02.112Z,100266.53
2023-04-28T06:26:29.340Z,100264.63
2023-04-28T06:28:56.534Z,100267.06
2023-04-28T06:31:23.196Z,100275.72
2023-04-28T06:33:49.964Z,100268.50
2023-04-28T06:36:18.196Z,100265.34
2023-04-28T06:38:46.037Z,100278.06
2023-04-28T06:41:13.006Z,100276.53
2023-04-28T06:43:39.776Z,100290.03
2023-04-28T06:46:06.534Z,100289.25
2023-04-28T06:48:33.307Z,100292.00
2023-04-28T06:50:59.965Z,100295.94
2023-04-28T06:53:26.717Z,100294.41
2023-04-28T06:55:53.570Z,100303.63
2023-04-28T06:58:21.053Z,100300.09
2023-04-28T07:00:47.816Z,100316.00
2023-04-28T07:03:14.651Z,100306.53
2023-04-28T07:05:41.366Z,100312.53
2023-04-28T07:08:08.148Z,100316.19
2023-04-28T07:10:34.834Z,100314.66
2023-04-28T07:13:01.654Z,100317.06
2023-04-28T07:15:28.724Z,100317.97
2023-04-28T07:17:55.690Z,100329.94
2023-04-28T07:20:22.495Z,100323.69
2023-04-28T07:22:49.342Z,100321.78
2023-04-28T07:25:16.099Z,100331.44
2023-04-28T07:27:42.773Z,100331.50
2023-04-28T07:30:26.015Z,100340.34
2023-04-28T07:32:54.529Z,100344.41
2023-04-28T07:35:28.873Z,100342.16
2023-04-28T07:37:56.055Z,100352.19
2023-04-28T07:40:22.764Z,100349.84
2023-04-28T07:42:49.662Z,100349.13
2023-04-28T07:45:16.887Z,100359.50
2023-04-28T07:47:43.586Z,100365.63
2023-04-28T07:50:11.980Z,100366.56
2023-04-28T07:52:38.662Z,100366.63
2023-04-28T07:55:06.318Z,100379.41
2023-04-28T07:57:33.003Z,100373.94
2023-04-28T07:59:59.645Z,100382.34
2023-04-28T08:02:27.522Z,100388.34
2023-04-28T08:04:54.532Z,100389.56
2023-04-28T08:07:21.273Z,100394.81
2023-04-28T08:09:48.414Z,100389.69
2023-04-28T08:12:15.623Z,100393.28
2023-04-28T08:14:43.621Z,100396.16
2023-04-28T08:17:10.456Z,100396.91
2023-04-28T08:19:37.233Z,100404.53
2023-04-28T08:22:06.142Z,100405.47
2023-04-28T08:24:36.633Z,100415.78
2023-04-28T08:27:03.887Z,100405.91
2023-04-28T08:29:31.930Z,100411.09
2023-04-28T08:32:01.319Z,100419.06
2023-04-28T08:34:28.021Z,100413.53
2023-04-28T08:36:54.680Z,100416.28
2023-04-28T08:39:23.485Z,100411.16
2023-04-28T08:41:50.762Z,100418.31
2023-04-28T08:44:18.644Z,100423.13
2023-04-28T08:46:47.363Z,100420.06
2023-04-28T08:49:18.940Z,100420.22
2023-04-28T08:51:50.460Z,100423.53
2023-04-28T08:54:29.320Z,100425.44
2023-04-28T08:56:57.181Z,100431.22
2023-04-28T08:59:24.126Z,100436.97
2023-04-28T09:01:51.465Z,100436.31
2023-04-28T09:04:19.171Z,100445.06
2023-04-28T09:06:46.597Z,100432.78
2023-04-28T09:09:23.207Z,100440.09
2023-04-28T09:11:55.526Z,100443.47
2023-04-28T09:14:23.901Z,100451.53
2023-04-28T09:16:51.781Z,100453.50
2023-04-28T09:19:19.175Z,100451.88
2023-04-28T09:21:54.495Z,100456.63
2023-04-28T09:24:35.880Z,100454.31
2023-04-28T09:27:04.725Z,100457.53
2023-04-28T09:29:32.329Z,100452.44
2023-04-28T09:32:23.215Z,100459.97
2023-04-28T09:34:52.492Z,100456.44
2023-04-28T09:37:21.241Z,100456.06
2023-04-28T09:39:50.735Z,100462.44
2023-04-28T09:42:35.391Z,100468.75
2023-04-28T09:45:07.130Z,100470.38
2023-04-28T09:47:36.332Z,100464.16
2023-04-28T09:50:11.775Z,100473.13
2023-04-28T09:52:38.976Z,100469.69
2023-04-28T09:55:08.694Z,100475.81
2023-04-28T09:57:36.564Z,100471.91
2023-04-28T10:00:09.220Z,100483.09
2023-04-28T10:05:09.943Z,100482.56
2023-04-28T10:07:38.084Z,100489.28
2023-04-28T10:10:06.218Z,100491.97
2023-04-28T10:12:33.307Z,100478.97
2023-04-28T10:15:00.237Z,100488.00
2023-04-28T10:17:29.553Z,100489.91
2023-04-28T10:19:57.273Z,100491.59
2023-04-28T10:22:50.068Z,100498.88
2023-04-28T10:25:32.673Z,100495.91
2023-04-28T10:28:00.724Z,100504.47
2023-04-28T10:30:31.413Z,100508.22
2023-04-28T10:33:13.593Z,100513.91
2023-04-28T10:35:45.652Z,100513.91
2023-04-28T10:38:21.765Z,100513.09
2023-04-28T10:40:50.143Z,100512.78
2023-04-28T10:43:27.090Z,100520.97
2023-04-28T10:45:57.934Z,100527.34
2023-04-28T10:48:34.332Z,100519.63
2023-04-28T10:51:04.424Z,100526.28
2023-04-28T10:53:47.321Z,100524.91
2023-04-28T10:56:21.916Z,100522.69
2023-04-28T10:59:00.546Z,100530.94
2023-04-28T11:01:35.176Z,100532.41
2023-04-28T11:04:14.027Z,100537.94
2023-04-28T11:06:46.068Z,100537.22
2023-04-28T11:09:12.698Z,100537.28
2023-04-28T11:11:40.368Z,100541.06
2023-04-28T11:14:19.182Z,100534.47
2023-04-28T11:16:55.146Z,100538.31
2023-04-28T11:19:26.575Z,100535.25
2023-04-28T11:21:58.244Z,100534.13
2023-04-28T11:24:25.943Z,100535.38
2023-04-28T11:26:53.440Z,100538.28
2023-04-28T11:29:41.047Z,100543.19
2023-04-28T11:32:09.497Z,100545.69
2023-04-28T11:34:37.267Z,100552.91
2023-04-28T11:37:07.239Z,100558.81
2023-04-28T11:39:34.708Z,100556.72
2023-04-28T11:42:10.209Z,100557.38
2023-04-28T11:44:36.991Z,100557.28
2023-04-28T11:47:05.675Z,100552.00
2023-04-28T11:49:42.883Z,100561.09
2023-04-28T11:52:10.602Z,100557.81
2023-04-28T11:54:38.168Z,100566.56
2023-04-28T11:57:05.932Z,100564.66
2023-04-28T11:59:34.811Z,100570.38
2023-04-28T12:02:04.476Z,100566.97
2023-04-28T12:04:42.371Z,100571.91
2023-04-28T12:07:14.486Z,100563.19
2023-04-28T12:09:42.831Z,100577.59
2023-04-28T12:12:12.320Z,100574.53
2023-04-28T12:15:05.746Z,100581.06
2023-04-28T12:17:42.770Z,100579.22
2023-04-28T12:20:11.804Z,100584.50
2023-04-28T12:22:46.979Z,100591.81
2023-04-28T12:25:17.391Z,100587.84
2023-04-28T12:28:00.826Z,100597.44
2023-04-28T12:30:28.658Z,100595.03
2023-04-28T12:32:56.561Z,100602.22
2023-04-28T12:35:25.453Z,100592.63
2023-04-28T12:37:53.718Z,100602.22
2023-04-28T12:40:20.466Z,100603.38
2023-04-28T12:42:47.144Z,100601.31
2023-04-28T12:45:14.126Z,100596.06
2023-04-28T12:47:41.052Z,100602.41
2023-04-28T12:50:08.555Z,100613.13
2023-04-28T12:52:36.036Z,100609.00
2023-04-28T12:55:04.051Z,100602.56
2023-04-28T12:57:30.936Z,100609.72
2023-04-28T12:59:57.593Z,100614.88
2023-04-28T13:02:24.807Z,100610.88
2023-04-28T13:04:53.532Z,100622.50
2023-04-28T13:07:20.766Z,100623.34
2023-04-28T13:09:48.154Z,100624.63
2023-04-28T13:12:15.694Z,100632.25
2023-04-28T13:14:42.462Z,100624.66
2023-04-28T13:17:10.497Z,100628.31
2023-04-28T13:19:37.475Z,100627.53
2023-04-28T13:22:06.029Z,100632.34
2023-04-28T13:24:36.189Z,100632.69
2023-04-28T13:27:04.256Z,100630.66
2023-04-28T13:29:31.068Z,100637.03
2023-04-28T13:31:57.788Z,100644.19
2023-04-28T13:34:24.518Z,100641.75
2023-04-28T13:36:54.073Z,100640.09
2023-04-28T13:39:22.084Z,100642.88
2023-04-28T13:41:49.525Z,100638.91
2023-04-28T13:44:17.405Z,100645.72
2023-04-28T13:46:44.078Z,100654.66
2023-04-28T13:49:10.819Z,100651.16
2023-04-28T13:51:37.799Z,100651.63
2023-04-28T13:54:08.295Z,100658.47
2023-04-28T13:56:36.595Z,100653.25
2023-04-28T13:59:04.001Z,100660.06
2023-04-28T14:01:30.972Z,100652.06
2023-04-28T14:03:58.062Z,100654.06
2023-04-28T14:06:24.921Z,100663.66
2023-04-28T14:08:52.055Z,100659.72
2023-04-28T14:11:18.694Z,100658.19
2023-04-28T14:13:45.509Z,100658.22
2023-04-28T14:16:12.386Z,100663.03
2023-04-28T14:18:39.178Z,100651.09
2023-04-28T14:21:08.511Z,100659.88
2023-04-28T14:23:35.751Z,100659.09
2023-04-28T14:26:02.726Z,100655.91
2023-04-28T14:28:29.496Z,100659.09
2023-04-28T14:30:56.484Z,100657.09
2023-04-28T14:33:23.235Z,100658.34
2023-04-28T14:35:49.867Z,100654.31
2023-04-28T14:38:16.522Z,100651.88
2023-04-28T14:40:43.178Z,100653.50
2023-04-28T14:43:09.843Z,100657.50
2023-04-28T14:45:38.254Z,100655.50
2023-04-28T14:48:06.969Z,100662.31
2023-04-28T14:50:33.809Z,100651.13
2023-04-28T14:53:05.673Z,100659.13
2023-04-28T14:55:32.835Z,100660.63
2023-04-28T14:57:59.447Z,100667.78
2023-04-28T15:00:26.128Z,100664.13
2023-04-28T15:02:53.272Z,100665.50
2023-04-28T15:05:20.124Z,100664.13
2023-04-28T15:07:46.955Z,100668.72
2023-04-28T15:10:13.671Z,100670.88
2023-04-28T15:12:40.471Z,100678.66
2023-04-28T15:15:07.972Z,100677.91
2023-04-28T15:17:35.013Z,100678.34
2023-04-28T15:20:02.004Z,100682.19
2023-04-28T15:22:28.602Z,100682.03
2023-04-28T15:24:56.082Z,100675.97
2023-04-28T15:27:23.301Z,100679.44
2023-04-28T15:29:50.710Z,100675.94
2023-04-28T15:32:17.623Z,100681.81
2023-04-28T15:34:44.317Z,100683.94
2023-04-28T15:37:47.696Z,100686.84
2023-04-28T15:40:16.803Z,100675.38
2023-04-28T15:42:52.168Z,100681.03
2023-04-28T15:45:22.834Z,100678.69
2023-04-28T15:47:51.065Z,100676.88
2023-04-28T15:50:19.832Z,100679.91
2023-04-28T15:52:48.521Z,100684.00
2023-04-28T15:55:20.197Z,100688.88
2023-04-28T15:57:49.527Z,100686.50
2023-04-28T16:00:16.546Z,100693.97
2023-04-28T16:02:43.968Z,100693.47
2023-04-28T16:05:11.382Z,100696.09
2023-04-28T16:07:39.195Z,100692.19
2023-04-28T16:10:08.245Z,100689.06
2023-04-28T16:12:35.706Z,100695.88
2023-04-28T16:15:03.226Z,100698.75
2023-04-28T16:17:30.262Z,100690.34
2023-04-28T16:19:57.140Z,100694.78
2023-04-28T16:22:23.992Z,100696.44
2023-04-28T16:24:51.663Z,100704.16
2023-04-28T16:27:18.384Z,100704.63
2023-04-28T16:29:45.953Z,100698.25
2023-04-28T16:32:12.733Z,100700.66
2023-04-28T16:34:39.480Z,100701.47
2023-04-28T16:37:10.963Z,100699.09
2023-04-28T16:39:37.666Z,100695.78
2023-04-28T16:42:05.318Z,100699.16
2023-04-28T16:44:32.248Z,100698.34
2023-04-28T16:46:59.492Z,100699.59
2023-04-28T16:49:26.310Z,100707.28
2023-04-28T16:52:06.516Z,100698.53
2023-04-28T16:54:33.702Z,100704.53
2023-04-28T16:57:05.040Z,100697.13
2023-04-28T16:59:33.302Z,100702.53
2023-04-28T17:02:02.065Z,100703.78
2023-04-28T17:04:28.954Z,100703.16
2023-04-28T17:06:55.985Z,100709.19
2023-04-28T17:09:22.937Z,100706.66
2023-04-28T17:11:50.126Z,100712.06
2023-04-28T17:14:17.078Z,100714.88
2023-04-28T17:16:43.975Z,100719.88
2023-04-28T17:19:11.601Z,100714.38
2023-04-28T17:21:38.505Z,100715.72
2023-04-28T17:24:05.621Z,100718.63
2023-04-28T17:26:32.394Z,100723.53
2023-04-28T17:28:59.952Z,100712.75
2023-04-28T17:31:27.714Z,100715.97
2023-04-28T17:33:56.261Z,100719.59
2023-04-28T17:36:23.402Z,100731.22
2023-04-28T17:38:52.710Z,100744.88
2023-04-28T17:41:23.282Z,100742.03
2023-04-28T17:43:53.626Z,100745.19
2023-04-28T17:46:21.251Z,100742.31
2023-04-28T17:48:47.930Z,100754.28
2023-04-28T17:51:14.682Z,100755.78
2023-04-28T17:53:42.467Z,100756.53
2023-04-28T17:56:09.180Z,100762.59
2023-04-28T17:58:36.471Z,100764.66
2023-04-28T18:01:04.353Z,100765.56
2023-04-28T18:03:32.480Z,100772.84
2023-04-28T18:05:59.494Z,100776.47
2023-04-28T18:08:26.163Z,100778.06
2023-04-28T18:10:53.538Z,100782.44
2023-04-28T18:13:20.318Z,100781.97
2023-04-28T18:15:47.040Z,100778.28
2023-04-28T18:18:13.693Z,100778.63
2023-04-28T18:20:42.289Z,100783.34
2023-04-28T18:23:09.631Z,100774.81
2023-04-28T18:25:37.174Z,100784.34
2023-04-28T18:28:04.326Z,100776.31
2023-04-28T18:30:39.677Z,100783.41
2023-04-28T18:33:08.371Z,100780.25
2023-04-28T18:35:37.021Z,100775.81
2023-04-28T18:38:05.138Z,100773.84
2023-04-28T18:40:37.659Z,100785.00
2023-04-28T18:43:05.602Z,100786.53
2023-04-28T18:45:34.551Z,100785.69
2023-04-28T18:48:02.379Z,100791.22
2023-04-28T18:50:29.777Z,100795.53
2023-04-28T18:52:56.648Z,100797.44
2023-04-28T18:55:23.415Z,100804.59
2023-04-28T18:57:50.330Z,100811.31
2023-04-28T19:00:17.344Z,100802.75
2023-04-28T19:02:45.322Z,100807.75
2023-04-28T19:05:12.174Z,100806.81
2023-04-28T19:07:39.940Z,100800.63
2023-04-28T19:10:07.126Z,100811.19
2023-04-28T19:12:33.797Z,100811.38
2023-04-28T19:15:01.075Z,100811.59
2023-04-28T19:17:28.067Z,100810.22
2023-04-28T19:19:56.312Z,100813.25
2023-04-28T19:22:35.197Z,100817.84
2023-04-28T19:25:02.876Z,100824.97
2023-04-28T19:27:32.153Z,100814.63
2023-04-28T19:29:59.989Z,100826.97
2023-04-28T19:32:27.122Z,100822.88
2023-04-28T19:34:54.951Z,100832.84
2023-04-28T19:37:22.244Z,100831.56
2023-04-28T19:39:51.130Z,100839.50
2023-04-28T19:42:18.835Z,100836.72
2023-04-28T19:44:46.375Z,100847.13
2023-04-28T19:47:13.451Z,100851.19
2023-04-28T19:49:42.247Z,100844.06
2023-04-28T19:52:10.346Z,100863.56
2023-04-28T19:54:39.532Z,100857.06
2023-04-28T19:57:06.175Z,100854.19
2023-04-28T19:59:32.961Z,100860.75
2023-04-28T20:02:00.126Z,100867.34
2023-04-28T20:04:28.977Z,100859.69
2023-04-28T20:06:56.118Z,100855.97
2023-04-28T20:09:22.814Z,100867.47
2023-04-28T20:11:49.574Z,100863.75
2023-04-28T20:14:16.297Z,100873.66
2023-04-28T20:16:43.362Z,100874.09
2023-04-28T20:19:10.822Z,100874.53
2023-04-28T20:21:39.461Z,100881.94
2023-04-28T20:24:07.102Z,100885.03
2023-04-28T20:26:34.074Z,100884.16
2023-04-28T20:29:00.733Z,100885.28
2023-04-28T20:31:29.973Z,100887.91
2023-04-28T20:33:56.733Z,100880.53
2023-04-28T20:36:23.532Z,100894.69
2023-04-28T20:38:50.258Z,100896.06
2023-04-28T20:41:16.992Z,100899.22
2023-04-28T20:43:43.651Z,100903.91
2023-04-28T20:46:13.382Z,100900.38
2023-04-28T20:48:40.682Z,100899.94
2023-04-28T20:51:07.657Z,100899.22
2023-04-28T20:53:34.419Z,100908.66
2023-04-28T20:56:01.491Z,100915.41
2023-04-28T20:58:28.279Z,100913.78
2023-04-28T21:00:55.008Z,100916.22
2023-04-28T21:03:23.823Z,100909.41
2023-04-28T21:05:50.658Z,100915.69
2023-04-28T21:08:17.287Z,100916.84
2023-04-28T21:10:43.975Z,100920.34
2023-04-28T21:13:10.672Z,100919.94
2023-04-28T21:15:38.619Z,100920.00
2023-04-28T21:18:05.680Z,100924.34
2023-04-28T21:20:32.472Z,100929.00
2023-04-28T21:22:59.182Z,100923.53
2023-04-28T21:25:26.297Z,100922.41
2023-04-28T21:27:53.328Z,100918.91
2023-04-28T21:30:20.831Z,100919.44
2023-04-28T21:32:47.682Z,100925.34
2023-04-28T21:35:14.802Z,100912.72
2023-04-28T21:37:41.646Z,100922.31
2023-04-28T21:40:09.421Z,100927.13
2023-04-28T21:42:36.242Z,100923.91
2023-04-28T21:45:03.089Z,100924.19
2023-04-28T21:47:30.136Z,100926.44
2023-04-28T21:49:56.963Z,100934.28
2023-04-28T21:52:23.766Z,100926.50
2023-04-28T21:54:50.962Z,100937.47
2023-04-28T21:57:17.768Z,100928.50
2023-04-28T21:59:44.408Z,100930.69
2023-04-28T22:02:12.698Z,100940.56
2023-04-28T22:04:39.601Z,100931.47
2023-04-28T22:07:06.566Z,100940.38
2023-04-28T22:09:33.528Z,100932.41
2023-04-28T22:12:00.229Z,100932.66
2023-04-28T22:14:40.248Z,100933.00
2023-04-28T22:17:08.278Z,100935.25
2023-04-28T22:19:34.931Z,100944.94
2023-04-28T22:22:01.752Z,100934.50
2023-04-28T22:24:28.516Z,100939.59
2023-04-28T22:26:55.179Z,100939.41
2023-04-28T22:29:22.091Z,100943.34
2023-04-28T22:31:48.830Z,100940.91
2023-04-28T22:34:16.488Z,100943.63
2023-04-28T22:36:43.267Z,100947.91
2023-04-28T22:39:09.865Z,100936.81
2023-04-28T22:41:36.481Z,100942.97
2023-04-28T22:44:03.319Z,100947.41
2023-04-28T22:46:30.261Z,100949.50
2023-04-28T22:48:57.495Z,100954.84
2023-04-28T22:51:24.401Z,100954.28
2023-04-28T22:53:51.277Z,100952.59
2023-04-28T22:56:18.096Z,100959.53
2023-04-28T22:58:44.716Z,100954.00
2023-04-28T23:01:11.737Z,100968.00
2023-04-28T23:03:38.875Z,100969.53
2023-04-28T23:06:05.943Z,100962.72
2023-04-28T23:08:35.607Z,100965.38
2023-04-28T23:11:06.393Z,100965.38
2023-04-28T23:13:33.029Z,100964.91
2023-04-28T23:16:00.561Z,100961.69
2023-04-28T23:18:32.022Z,100954.06
2023-04-28T23:20:58.964Z,100965.88
2023-04-28T23:23:25.854Z,100968.19
2023-04-28T23:25:55.676Z,100966.47
2023-04-28T23:28:25.546Z,100963.69
2023-04-28T23:30:52.147Z,100967.97
2023-04-28T23:33:18.855Z,100979.78
2023-04-28T23:35:45.615Z,100975.75
2023-04-28T23:38:12.567Z,100980.03
2023-04-28T23:40:39.328Z,100975.16
2023-04-28T23:43:06.184Z,100984.19
2023-04-28T23:45:33.021Z,100990.56
2023-04-28T23:47:59.775Z,100989.72
2023-04-28T23:50:27.900Z,100991.25
2023-04-28T23:52:54.825Z,100990.66
2023-04-28T23:55:22.142Z,100997.38
2023-04-28T23:57:48.821Z,101006.72
